createdAt,value
2022-11-21T00:01:51.005Z,10.17
2022-11-21T00:03:54.695Z,9.93
2022-11-21T00:05:58.067Z,6.83
2022-11-21T00:08:01.355Z,6.40
2022-11-21T00:10:05.279Z,11.60
2022-11-21T00:12:08.713Z,10.57
2022-11-21T00:14:12.077Z,12.97
2022-11-21T00:16:17.643Z,7.93
2022-11-21T00:18:20.963Z,8.23
2022-11-21T00:20:24.505Z,12.10
2022-11-21T00:22:27.800Z,13.13
2022-11-21T00:24:31.410Z,6.93
2022-11-21T00:26:34.677Z,4.90
2022-11-21T00:28:38.344Z,7.40
2022-11-21T00:30:41.667Z,11.10
2022-11-21T00:32:46.327Z,18.47
2022-11-21T00:34:49.681Z,12.67
2022-11-21T00:36:53.002Z,7.17
2022-11-21T00:38:56.803Z,6.93
2022-11-21T00:41:00.092Z,7.90
2022-11-21T00:43:03.353Z,11.60
2022-11-21T00:45:07.902Z,14.13
2022-11-21T00:47:11.487Z,7.20
2022-11-21T00:49:16.211Z,11.43
2022-11-21T00:51:19.647Z,7.00
2022-11-21T00:53:22.895Z,5.40
2022-11-21T00:55:26.660Z,8.17
2022-11-21T00:57:30.060Z,11.00
2022-11-21T00:59:33.663Z,5.10
2022-11-21T01:01:37.143Z,9.10
2022-11-21T01:03:41.168Z,10.10
2022-11-21T01:05:46.362Z,6.50
2022-11-21T01:07:50.246Z,9.87
2022-11-21T01:09:53.562Z,8.00
2022-11-21T01:11:57.195Z,7.80
2022-11-21T01:14:00.729Z,13.10
2022-11-21T01:16:05.948Z,9.13
2022-11-21T01:18:10.127Z,6.10
2022-11-21T01:20:13.491Z,7.33
2022-11-21T01:22:18.540Z,14.20
2022-11-21T01:24:21.933Z,10.97
2022-11-21T01:26:27.081Z,8.00
2022-11-21T01:28:30.585Z,13.10
2022-11-21T01:30:33.957Z,9.93
2022-11-21T01:32:37.213Z,5.63
2022-11-21T01:34:40.628Z,8.80
2022-11-21T01:36:44.260Z,13.53
2022-11-21T01:38:50.967Z,9.37
2022-11-21T01:40:54.370Z,9.23
2022-11-21T01:43:03.586Z,11.67
2022-11-21T01:45:39.837Z,8.20
2022-11-21T01:47:43.555Z,8.37
2022-11-21T01:49:48.529Z,8.83
2022-11-21T01:51:55.776Z,19.90
2022-11-21T01:54:05.633Z,10.40
2022-11-21T01:56:10.164Z,8.27
2022-11-21T01:58:14.629Z,9.70
2022-11-21T02:00:23.504Z,6.33
2022-11-21T02:02:32.271Z,16.00
2022-11-21T02:04:37.307Z,12.43
2022-11-21T02:06:41.959Z,6.93
2022-11-21T02:08:46.095Z,8.27
2022-11-21T02:10:59.760Z,9.43
2022-11-21T02:13:03.528Z,8.73
2022-11-21T02:15:08.581Z,12.37
2022-11-21T02:17:12.512Z,8.33
2022-11-21T02:19:22.984Z,6.40
2022-11-21T02:21:37.712Z,7.70
2022-11-21T02:23:46.123Z,12.47
2022-11-21T02:25:52.099Z,10.07
2022-11-21T02:27:59.925Z,18.20
2022-11-21T02:30:05.491Z,13.07
2022-11-21T02:32:09.040Z,12.00
2022-11-21T02:34:13.345Z,13.37
2022-11-21T02:36:38.834Z,17.67
2022-11-21T02:38:42.261Z,10.30
2022-11-21T02:40:53.302Z,14.70
2022-11-21T02:43:02.624Z,11.83
2022-11-21T02:45:15.825Z,13.13
2022-11-21T02:47:19.199Z,13.20
2022-11-21T02:49:31.356Z,13.23
2022-11-21T02:51:34.869Z,15.40
2022-11-21T02:53:39.146Z,14.97
2022-11-21T02:55:43.051Z,20.87
2022-11-21T02:57:47.825Z,16.27
2022-11-21T02:59:51.296Z,20.60
2022-11-21T03:01:57.481Z,18.03
2022-11-21T03:04:01.698Z,17.00
2022-11-21T03:06:05.339Z,16.40
2022-11-21T03:08:10.199Z,18.87
2022-11-21T03:10:14.245Z,18.73
2022-11-21T03:12:17.572Z,20.30
2022-11-21T03:14:27.754Z,15.73
2022-11-21T03:16:31.267Z,13.10
2022-11-21T03:18:34.719Z,14.77
2022-11-21T03:20:38.594Z,17.33
2022-11-21T03:22:41.910Z,17.10
2022-11-21T03:24:45.347Z,22.00
2022-11-21T03:26:49.366Z,16.83
2022-11-21T03:28:52.813Z,19.40
2022-11-21T03:30:57.555Z,20.40
2022-11-21T03:33:01.349Z,21.00
2022-11-21T03:35:05.305Z,23.23
2022-11-21T03:37:08.889Z,22.73
2022-11-21T03:39:12.215Z,18.83
2022-11-21T03:41:29.405Z,25.17
2022-11-21T03:43:32.957Z,19.50
2022-11-21T03:45:36.289Z,17.07
2022-11-21T03:47:42.427Z,19.50
2022-11-21T03:49:46.016Z,26.53
2022-11-21T03:51:49.459Z,20.77
2022-11-21T03:53:53.135Z,19.37
2022-11-21T03:55:56.471Z,17.27
2022-11-21T03:57:59.870Z,16.70
2022-11-21T04:00:03.230Z,19.93
2022-11-21T04:02:08.052Z,20.23
2022-11-21T04:04:12.970Z,19.33
2022-11-21T04:06:19.629Z,19.37
2022-11-21T04:08:23.193Z,14.60
2022-11-21T04:10:26.728Z,17.50
2022-11-21T04:12:30.454Z,17.50
2022-11-21T04:14:36.768Z,21.83
2022-11-21T04:16:42.322Z,17.20
2022-11-21T04:18:52.275Z,16.87
2022-11-21T04:21:00.352Z,19.67
2022-11-21T04:23:04.099Z,18.23
2022-11-21T04:25:09.549Z,23.77
2022-11-21T04:27:12.803Z,15.83
2022-11-21T04:29:16.144Z,28.47
2022-11-21T04:31:19.772Z,18.80
2022-11-21T04:33:23.161Z,21.70
2022-11-21T04:35:27.810Z,29.57
2022-11-21T04:37:33.191Z,24.07
2022-11-21T04:39:36.716Z,25.20
2022-11-21T04:41:40.096Z,24.87
2022-11-21T04:43:43.430Z,28.30
2022-11-21T04:45:46.827Z,18.50
2022-11-21T04:47:50.668Z,22.23
2022-11-21T04:49:54.004Z,20.90
2022-11-21T04:51:57.443Z,24.53
2022-11-21T04:54:02.194Z,17.97
2022-11-21T04:56:06.341Z,16.10
2022-11-21T04:58:10.386Z,23.33
2022-11-21T05:00:17.503Z,20.83
2022-11-21T05:02:25.542Z,19.77
2022-11-21T05:04:29.099Z,19.30
2022-11-21T05:06:33.454Z,22.63
2022-11-21T05:08:36.794Z,20.70
2022-11-21T05:10:59.628Z,22.60
2022-11-21T05:13:20.422Z,24.43
2022-11-21T05:15:25.083Z,24.23
2022-11-21T05:17:29.992Z,20.77
2022-11-21T05:19:33.528Z,20.03
2022-11-21T05:21:37.029Z,23.70
2022-11-21T05:23:40.916Z,22.03
2022-11-21T05:25:45.643Z,19.40
2022-11-21T05:27:49.492Z,17.20
2022-11-21T05:29:53.304Z,13.37
2022-11-21T05:31:56.671Z,22.30
2022-11-21T05:34:04.581Z,17.90
2022-11-21T05:36:08.150Z,19.67
2022-11-21T05:38:12.477Z,17.73
2022-11-21T05:40:17.015Z,16.57
2022-11-21T05:42:41.786Z,21.33
2022-11-21T05:44:46.408Z,31.50
2022-11-21T05:46:49.882Z,20.67
2022-11-21T05:48:54.855Z,26.47
2022-11-21T05:50:58.269Z,28.17
2022-11-21T05:53:03.781Z,26.43
2022-11-21T05:55:07.650Z,24.37
2022-11-21T05:57:11.153Z,22.60
2022-11-21T05:59:16.790Z,21.13
2022-11-21T06:01:40.252Z,22.03
2022-11-21T06:03:43.122Z,21.63
2022-11-21T06:05:46.986Z,26.37
2022-11-21T06:07:50.463Z,25.77
2022-11-21T06:09:53.780Z,30.27
2022-11-21T06:11:57.356Z,21.30
2022-11-21T06:14:01.398Z,29.83
2022-11-21T06:16:08.058Z,28.73
2022-11-21T06:18:11.318Z,32.50
2022-11-21T06:20:14.888Z,22.87
2022-11-21T06:22:18.308Z,32.33
2022-11-21T06:24:22.418Z,40.70
2022-11-21T06:26:28.426Z,26.63
2022-11-21T06:28:35.125Z,36.73
2022-11-21T06:30:39.085Z,24.70
2022-11-21T06:32:43.883Z,33.33
2022-11-21T06:34:47.215Z,31.30
2022-11-21T06:36:51.323Z,35.17
2022-11-21T06:38:55.465Z,32.90
2022-11-21T06:40:59.010Z,33.40
2022-11-21T06:43:02.567Z,30.67
2022-11-21T06:45:06.827Z,33.93
2022-11-21T06:47:10.173Z,34.40
2022-11-21T06:49:14.916Z,29.47
2022-11-21T06:51:19.792Z,39.50
2022-11-21T06:53:23.170Z,28.77
2022-11-21T06:55:27.574Z,23.33
2022-11-21T06:57:32.717Z,27.30
2022-11-21T06:59:36.093Z,27.30
2022-11-21T07:01:39.570Z,26.30
2022-11-21T07:03:42.924Z,28.53
2022-11-21T07:05:47.607Z,21.03
2022-11-21T07:07:52.372Z,17.93
2022-11-21T07:09:55.722Z,22.57
2022-11-21T07:12:19.478Z,20.97
2022-11-21T07:14:22.017Z,25.57
2022-11-21T07:16:26.194Z,26.53
2022-11-21T07:18:30.332Z,21.13
2022-11-21T07:20:34.034Z,29.20
2022-11-21T07:22:39.157Z,21.27
2022-11-21T07:24:42.593Z,13.33
2022-11-21T07:26:46.035Z,11.30
2022-11-21T07:28:49.750Z,12.73
2022-11-21T07:30:56.458Z,15.63
2022-11-21T07:33:01.196Z,9.30
2022-11-21T07:35:04.914Z,7.37
2022-11-21T07:37:08.417Z,10.13
2022-11-21T07:39:13.284Z,7.47
2022-11-21T07:41:17.323Z,8.90
2022-11-21T07:43:21.509Z,8.20
2022-11-21T07:45:24.824Z,9.20
2022-11-21T07:47:28.790Z,10.77
2022-11-21T07:49:32.430Z,7.53
2022-11-21T07:51:35.812Z,8.07
2022-11-21T07:53:39.247Z,7.47
2022-11-21T07:55:44.286Z,7.80
2022-11-21T07:57:47.710Z,7.60
2022-11-21T07:59:51.205Z,7.20
2022-11-21T08:01:55.072Z,9.87
2022-11-21T08:03:58.503Z,11.90
2022-11-21T08:06:04.150Z,9.00
2022-11-21T08:08:08.015Z,13.57
2022-11-21T08:10:11.958Z,12.30
2022-11-21T08:12:16.939Z,6.87
2022-11-21T08:14:20.517Z,11.10
2022-11-21T08:16:27.873Z,7.73
2022-11-21T08:18:31.729Z,7.93
2022-11-21T08:20:35.562Z,6.20
2022-11-21T08:22:40.648Z,12.30
2022-11-21T08:24:44.359Z,6.30
2022-11-21T08:26:48.789Z,12.97
2022-11-21T08:28:59.651Z,9.53
2022-11-21T08:31:05.281Z,8.33
2022-11-21T08:33:10.000Z,7.60
2022-11-21T08:35:13.950Z,10.43
2022-11-21T08:37:17.226Z,9.57
2022-11-21T08:39:20.876Z,14.73
2022-11-21T08:41:42.225Z,7.73
2022-11-21T08:43:45.960Z,8.87
2022-11-21T08:45:50.614Z,9.37
2022-11-21T08:47:54.233Z,13.60
2022-11-21T08:49:57.600Z,7.73
2022-11-21T08:52:01.071Z,10.83
2022-11-21T08:54:04.827Z,6.93
2022-11-21T08:56:09.007Z,11.00
2022-11-21T08:58:12.456Z,14.93
2022-11-21T09:00:17.122Z,10.50
2022-11-21T09:02:21.979Z,9.57
2022-11-21T09:04:25.500Z,8.57
2022-11-21T09:06:29.003Z,8.07
2022-11-21T09:08:32.500Z,11.27
2022-11-21T09:10:36.023Z,8.03
2022-11-21T09:12:39.501Z,9.50
2022-11-21T09:15:00.519Z,12.17
2022-11-21T09:17:35.640Z,9.73
2022-11-21T09:19:40.395Z,7.23
2022-11-21T09:21:43.805Z,7.07
2022-11-21T09:23:47.362Z,9.87
2022-11-21T09:25:50.690Z,9.10
2022-11-21T09:27:54.014Z,8.10
2022-11-21T09:29:57.583Z,12.30
2022-11-21T09:32:00.942Z,7.80
2022-11-21T09:34:04.338Z,11.50
2022-11-21T09:36:09.875Z,8.47
2022-11-21T09:38:13.558Z,8.43
2022-11-21T09:40:17.790Z,8.60
2022-11-21T09:42:39.677Z,8.60
2022-11-21T09:45:05.863Z,11.27
2022-11-21T09:47:22.573Z,12.50
2022-11-21T09:49:27.224Z,16.20
2022-11-21T09:51:33.086Z,10.73
2022-11-21T09:53:38.939Z,8.63
2022-11-21T09:55:47.098Z,8.43
2022-11-21T09:57:51.561Z,9.17
2022-11-21T09:59:57.158Z,12.17
2022-11-21T10:02:00.623Z,12.30
2022-11-21T10:04:04.664Z,7.63
2022-11-21T10:06:18.418Z,7.77
2022-11-21T10:08:31.493Z,8.73
2022-11-21T10:10:51.672Z,9.43
2022-11-21T10:13:07.332Z,7.70
2022-11-21T10:15:32.944Z,8.43
2022-11-21T10:17:48.552Z,6.43
2022-11-21T10:20:07.416Z,9.33
2022-11-21T10:22:49.220Z,6.40
2022-11-21T10:24:57.823Z,7.13
2022-11-21T10:27:03.849Z,9.00
2022-11-21T10:29:16.968Z,5.93
2022-11-21T10:31:21.631Z,8.10
2022-11-21T10:33:31.824Z,8.03
2022-11-21T10:35:40.707Z,10.73
2022-11-21T10:37:48.643Z,7.70
2022-11-21T10:39:53.421Z,7.70
2022-11-21T10:42:02.251Z,8.17
2022-11-21T10:44:43.419Z,6.93
2022-11-21T10:46:56.073Z,5.80
2022-11-21T10:49:02.210Z,7.23
2022-11-21T10:51:18.586Z,8.80
2022-11-21T10:53:42.963Z,7.63
2022-11-21T10:55:59.980Z,9.10
2022-11-21T10:58:18.894Z,7.33
2022-11-21T11:00:25.255Z,5.47
2022-11-21T11:02:29.302Z,6.87
2022-11-21T11:04:44.134Z,6.77
2022-11-21T11:06:51.034Z,3.70
2022-11-21T11:08:54.290Z,3.00
2022-11-21T11:11:04.119Z,10.37
2022-11-21T11:13:51.710Z,5.90
2022-11-21T11:15:59.795Z,5.57
2022-11-21T11:18:09.444Z,2.50
2022-11-21T11:20:39.143Z,6.53
2022-11-21T11:22:42.517Z,4.43
2022-11-21T11:24:58.965Z,3.67
2022-11-21T11:27:04.721Z,5.00
2022-11-21T11:29:16.197Z,5.40
2022-11-21T11:31:19.830Z,6.37
2022-11-21T11:33:31.689Z,6.40
2022-11-21T11:35:37.053Z,2.70
2022-11-21T11:37:42.301Z,2.97
2022-11-21T11:39:56.913Z,2.57
2022-11-21T11:42:47.152Z,4.73
2022-11-21T11:45:26.496Z,11.20
2022-11-21T11:47:34.194Z,10.43
2022-11-21T11:49:57.429Z,8.17
2022-11-21T11:52:05.190Z,4.10
2022-11-21T11:54:14.260Z,3.63
2022-11-21T11:56:21.334Z,4.03
2022-11-21T11:58:30.265Z,2.43
2022-11-21T12:00:42.399Z,3.30
2022-11-21T12:02:53.222Z,3.23
2022-11-21T12:05:00.567Z,2.70
2022-11-21T12:09:38.845Z,3.23
2022-11-21T12:12:09.602Z,2.30
2022-11-21T12:14:40.355Z,1.60
2022-11-21T12:16:44.112Z,2.80
2022-11-21T12:18:55.776Z,2.17
2022-11-21T12:21:06.419Z,2.50
2022-11-21T12:23:11.389Z,1.47
2022-11-21T12:25:15.231Z,2.50
2022-11-21T12:27:28.174Z,3.57
2022-11-21T12:29:50.824Z,2.20
2022-11-21T12:32:10.162Z,2.53
2022-11-21T12:34:26.286Z,3.57
2022-11-21T12:36:36.687Z,1.67
2022-11-21T12:38:56.210Z,2.00
2022-11-21T12:41:33.161Z,1.67
2022-11-21T12:43:43.163Z,2.70
2022-11-21T12:45:51.882Z,5.93
2022-11-21T12:49:06.739Z,3.97
2022-11-21T12:52:02.613Z,1.63
2022-11-21T12:54:33.569Z,2.47
2022-11-21T12:56:47.223Z,3.27
2022-11-21T12:58:54.168Z,3.10
2022-11-21T13:01:07.219Z,1.67
2022-11-21T13:03:43.955Z,2.83
2022-11-21T13:05:50.847Z,1.93
2022-11-21T13:08:02.272Z,2.70
2022-11-21T13:10:07.066Z,2.03
2022-11-21T13:12:16.256Z,2.70
2022-11-21T13:14:28.107Z,3.17
2022-11-21T13:16:44.239Z,2.97
2022-11-21T13:18:50.914Z,2.20
2022-11-21T13:20:54.321Z,2.13
2022-11-21T13:23:01.044Z,2.03
2022-11-21T13:25:04.936Z,3.90
2022-11-21T13:27:10.382Z,1.67
2022-11-21T13:29:14.675Z,1.77
2022-11-21T13:31:32.084Z,3.27
2022-11-21T13:33:48.401Z,2.40
2022-11-21T13:36:01.279Z,1.90
2022-11-21T13:38:08.180Z,2.00
2022-11-21T13:40:36.041Z,2.50
2022-11-21T13:43:33.206Z,2.50
2022-11-21T13:45:43.727Z,2.67
2022-11-21T13:48:36.432Z,1.87
2022-11-21T13:51:13.090Z,2.27
2022-11-21T13:53:33.093Z,2.20
2022-11-21T13:55:54.314Z,1.90
2022-11-21T13:58:09.679Z,2.43
2022-11-21T14:00:28.857Z,2.07
2022-11-21T14:02:51.979Z,5.40
2022-11-21T14:05:15.056Z,1.47
2022-11-21T14:07:24.961Z,5.07
2022-11-21T14:09:38.602Z,4.17
2022-11-21T14:11:49.759Z,2.17
2022-11-21T14:13:53.199Z,1.93
2022-11-21T14:16:21.324Z,5.83
2022-11-21T14:18:26.245Z,1.27
2022-11-21T14:20:32.550Z,3.37
2022-11-21T14:22:45.481Z,2.50
2022-11-21T14:24:51.339Z,2.27
2022-11-21T14:26:55.932Z,5.10
2022-11-21T14:29:17.675Z,2.03
2022-11-21T14:31:21.176Z,5.07
2022-11-21T14:33:27.078Z,3.67
2022-11-21T14:35:30.488Z,6.80
2022-11-21T14:37:33.841Z,2.80
2022-11-21T14:39:44.694Z,3.70
2022-11-21T14:41:53.281Z,2.13
2022-11-21T14:44:22.172Z,3.40
2022-11-21T14:46:27.155Z,2.27
2022-11-21T14:48:31.616Z,2.40
2022-11-21T14:50:36.083Z,2.10
2022-11-21T14:52:39.486Z,1.67
2022-11-21T14:55:14.968Z,3.10
2022-11-21T14:57:23.310Z,1.77
2022-11-21T14:59:29.245Z,1.30
2022-11-21T15:01:34.652Z,3.10
2022-11-21T15:03:38.006Z,4.10
2022-11-21T15:06:01.287Z,3.43
2022-11-21T15:08:33.572Z,3.70
2022-11-21T15:10:34.436Z,1.30
2022-11-21T15:12:46.048Z,2.90
2022-11-21T15:14:53.539Z,1.60
2022-11-21T15:16:58.825Z,2.40
2022-11-21T15:19:02.438Z,1.90
2022-11-21T15:21:05.888Z,3.40
2022-11-21T15:23:28.281Z,1.63
2022-11-21T15:25:44.713Z,1.50
2022-11-21T15:27:50.674Z,1.83
2022-11-21T15:30:07.947Z,5.73
2022-11-21T15:32:16.560Z,3.77
2022-11-21T15:34:35.317Z,2.00
2022-11-21T15:36:39.469Z,3.03
2022-11-21T15:38:48.096Z,2.90
2022-11-21T15:40:59.367Z,3.80
2022-11-21T15:43:04.202Z,2.07
2022-11-21T15:45:25.267Z,8.00
2022-11-21T15:47:29.005Z,3.10
2022-11-21T15:49:33.532Z,3.77
2022-11-21T15:54:03.196Z,4.37
2022-11-21T15:56:07.212Z,5.23
2022-11-21T15:57:15.690Z,3.87
2022-11-21T15:58:14.721Z,1.80
2022-11-21T16:00:20.068Z,1.30
2022-11-21T16:02:23.380Z,1.60
2022-11-21T16:04:27.258Z,1.67
2022-11-21T16:06:31.440Z,9.80
2022-11-21T16:08:37.395Z,4.80
2022-11-21T16:10:40.797Z,6.73
2022-11-21T16:12:44.168Z,3.60
2022-11-21T16:14:49.370Z,8.13
2022-11-21T16:16:52.908Z,3.43
2022-11-21T16:18:56.849Z,3.23
2022-11-21T16:21:07.813Z,3.07
2022-11-21T16:23:12.586Z,1.63
2022-11-21T16:25:16.545Z,4.50
2022-11-21T16:27:20.180Z,3.67
2022-11-21T16:29:23.701Z,3.90
2022-11-21T16:31:30.464Z,3.27
2022-11-21T16:33:35.204Z,3.73
2022-11-21T16:35:39.720Z,3.33
2022-11-21T16:37:43.251Z,4.83
2022-11-21T16:39:51.827Z,5.97
2022-11-21T16:41:55.477Z,3.30
2022-11-21T16:43:59.115Z,3.70
2022-11-21T16:46:08.638Z,3.00
2022-11-21T16:48:13.558Z,3.30
2022-11-21T16:50:17.179Z,6.83
2022-11-21T16:52:20.812Z,3.97
2022-11-21T16:54:25.794Z,4.90
2022-11-21T16:56:29.521Z,6.10
2022-11-21T16:58:33.020Z,7.00
2022-11-21T17:00:37.059Z,3.50
2022-11-21T17:02:40.571Z,2.13
2022-11-21T17:04:45.340Z,2.73
2022-11-21T17:06:48.995Z,13.63
2022-11-21T17:08:52.621Z,7.27
2022-11-21T17:10:56.580Z,2.27
2022-11-21T17:12:59.918Z,2.20
2022-11-21T17:15:03.267Z,5.33
2022-11-21T17:17:06.642Z,2.10
2022-11-21T17:19:13.270Z,5.40
2022-11-21T17:21:17.931Z,2.80
2022-11-21T17:23:21.727Z,4.77
2022-11-21T17:25:25.079Z,4.07
2022-11-21T17:27:28.440Z,3.10
2022-11-21T17:29:31.797Z,6.03
2022-11-21T17:31:35.214Z,2.70
2022-11-21T17:33:38.810Z,5.87
2022-11-21T17:35:42.137Z,2.57
2022-11-21T17:37:47.085Z,4.00
2022-11-21T17:39:50.503Z,3.40
2022-11-21T17:41:55.473Z,4.20
2022-11-21T17:43:59.729Z,4.20
2022-11-21T17:46:09.375Z,3.83
2022-11-21T17:48:13.139Z,5.13
2022-11-21T17:50:16.509Z,5.07
2022-11-21T17:52:19.963Z,3.27
2022-11-21T17:54:24.987Z,7.70
2022-11-21T17:56:30.340Z,6.50
2022-11-21T17:58:34.673Z,12.10
2022-11-21T18:00:38.244Z,2.97
2022-11-21T18:02:41.963Z,4.50
2022-11-21T18:04:45.350Z,2.90
2022-11-21T18:06:49.238Z,8.13
2022-11-21T18:08:52.664Z,6.67
2022-11-21T18:10:59.047Z,11.97
2022-11-21T18:13:02.841Z,5.03
2022-11-21T18:15:06.876Z,3.30
2022-11-21T18:17:10.200Z,4.33
2022-11-21T18:19:14.926Z,5.50
2022-11-21T18:21:20.165Z,4.97
2022-11-21T18:23:23.440Z,3.00
2022-11-21T18:25:26.793Z,3.50
2022-11-21T18:27:32.177Z,3.77
2022-11-21T18:29:36.981Z,4.73
2022-11-21T18:31:42.722Z,4.07
2022-11-21T18:33:49.439Z,8.17
2022-11-21T18:35:52.737Z,4.33
2022-11-21T18:37:56.801Z,5.53
2022-11-21T18:40:00.139Z,1.73
2022-11-21T18:42:03.494Z,5.40
2022-11-21T18:44:08.645Z,5.90
2022-11-21T18:46:13.256Z,2.03
2022-11-21T18:48:17.131Z,4.70
2022-11-21T18:50:20.513Z,3.90
2022-11-21T18:52:23.931Z,10.30
2022-11-21T18:54:27.230Z,10.13
2022-11-21T18:56:30.943Z,5.07
2022-11-21T18:58:35.523Z,5.37
2022-11-21T19:00:40.457Z,5.47
2022-11-21T19:02:43.759Z,5.20
2022-11-21T19:04:47.386Z,3.00
2022-11-21T19:06:50.721Z,2.60
2022-11-21T19:08:56.220Z,5.33
2022-11-21T19:11:03.143Z,6.30
2022-11-21T19:13:06.470Z,3.50
2022-11-21T19:15:10.892Z,4.10
2022-11-21T19:17:15.533Z,3.47
2022-11-21T19:19:35.543Z,3.37
2022-11-21T19:21:40.529Z,5.20
2022-11-21T19:23:44.990Z,4.47
2022-11-21T19:25:48.356Z,4.03
2022-11-21T19:27:51.692Z,5.40
2022-11-21T19:29:55.248Z,4.80
2022-11-21T19:31:58.611Z,4.90
2022-11-21T19:34:03.308Z,3.23
2022-11-21T19:36:09.793Z,6.47
2022-11-21T19:38:13.143Z,4.70
2022-11-21T19:40:16.549Z,4.67
2022-11-21T19:42:19.977Z,6.13
2022-11-21T19:44:23.271Z,5.23
2022-11-21T19:46:28.214Z,3.93
2022-11-21T19:48:33.634Z,8.17
2022-11-21T19:50:38.427Z,3.17
2022-11-21T19:52:41.760Z,5.50
2022-11-21T19:54:45.493Z,3.93
2022-11-21T19:56:48.841Z,3.17
2022-11-21T19:58:53.171Z,7.33
2022-11-21T20:01:06.122Z,4.23
2022-11-21T20:03:09.771Z,9.40
2022-11-21T20:05:13.087Z,5.07
2022-11-21T20:07:17.792Z,2.93
2022-11-21T20:09:22.696Z,4.70
2022-11-21T20:11:28.492Z,5.27
2022-11-21T20:13:32.881Z,10.73
2022-11-21T20:15:39.612Z,6.13
2022-11-21T20:17:42.960Z,2.40
2022-11-21T20:19:50.537Z,16.33
2022-11-21T20:21:54.554Z,7.00
2022-11-21T20:23:59.462Z,4.03
2022-11-21T20:26:02.825Z,5.13
2022-11-21T20:28:11.357Z,4.07
2022-11-21T20:30:14.963Z,5.13
2022-11-21T20:32:18.705Z,5.07
2022-11-21T20:34:22.462Z,3.87
2022-11-21T20:36:27.555Z,7.23
2022-11-21T20:38:30.809Z,3.90
2022-11-21T20:40:35.947Z,3.80
2022-11-21T20:42:40.036Z,3.40
2022-11-21T20:47:08.426Z,3.60
2022-11-21T20:49:12.487Z,4.80
2022-11-21T20:54:00.046Z,4.60
2022-11-21T20:56:06.873Z,5.50
2022-11-21T20:58:10.375Z,5.87
2022-11-21T21:00:16.050Z,5.83
2022-11-21T21:02:20.038Z,5.50
2022-11-21T21:04:23.586Z,5.43
2022-11-21T21:06:27.186Z,7.03
2022-11-21T21:08:31.673Z,3.97
2022-11-21T21:10:58.270Z,8.70
2022-11-21T21:13:00.016Z,5.80
2022-11-21T21:15:03.584Z,5.87
2022-11-21T21:17:07.314Z,6.27
2022-11-21T21:19:10.871Z,4.13
2022-11-21T21:21:17.568Z,7.87
2022-11-21T21:23:21.047Z,4.30
2022-11-21T21:25:24.639Z,5.70
2022-11-21T21:27:28.159Z,4.33
2022-11-21T21:29:33.663Z,7.50
2022-11-21T21:31:37.344Z,5.17
2022-11-21T21:33:41.466Z,2.63
2022-11-21T21:35:45.361Z,4.13
2022-11-21T21:37:48.870Z,4.80
2022-11-21T21:39:52.645Z,5.30
2022-11-21T21:41:56.346Z,3.40
2022-11-21T21:44:00.164Z,7.60
2022-11-21T21:46:07.763Z,8.43
2022-11-21T21:48:11.321Z,5.50
2022-11-21T21:50:16.138Z,8.90
2022-11-21T21:52:20.383Z,6.40
2022-11-21T21:54:23.932Z,5.60
2022-11-21T21:56:29.649Z,3.77
2022-11-21T21:58:35.358Z,4.03
2022-11-21T22:00:38.921Z,5.57
2022-11-21T22:02:44.019Z,2.30
2022-11-21T22:04:51.854Z,3.20
2022-11-21T22:06:55.575Z,3.13
2022-11-21T22:08:58.859Z,5.47
2022-11-21T22:11:06.806Z,5.30
2022-11-21T22:13:10.221Z,7.43
2022-11-21T22:15:13.637Z,7.40
2022-11-21T22:17:17.009Z,5.33
2022-11-21T22:19:21.968Z,3.70
2022-11-21T22:21:27.744Z,7.80
2022-11-21T22:23:31.500Z,4.40
2022-11-21T22:25:34.767Z,4.10
2022-11-21T22:27:38.116Z,6.40
2022-11-21T22:29:41.890Z,6.30
2022-11-21T22:31:45.565Z,4.30
2022-11-21T22:33:49.419Z,4.07
2022-11-21T22:35:59.450Z,3.93
2022-11-21T22:38:02.763Z,4.70
2022-11-21T22:40:07.123Z,3.97
2022-11-21T22:42:10.468Z,6.13
2022-11-21T22:44:13.780Z,2.67
2022-11-21T22:46:17.159Z,4.00
2022-11-21T22:48:22.563Z,2.57
2022-11-21T22:50:25.909Z,7.10
2022-11-21T22:52:31.006Z,3.27
2022-11-21T22:54:34.336Z,2.03
2022-11-21T22:56:37.599Z,4.23
2022-11-21T22:58:42.043Z,2.53
2022-11-21T23:00:45.384Z,2.43
2022-11-21T23:02:48.727Z,7.40
2022-11-21T23:04:52.203Z,2.87
2022-11-21T23:06:55.501Z,3.80
2022-11-21T23:09:00.165Z,2.13
2022-11-21T23:11:04.936Z,4.23
2022-11-21T23:13:08.226Z,3.77
2022-11-21T23:15:11.777Z,4.60
2022-11-21T23:17:16.217Z,4.73
2022-11-21T23:19:19.643Z,6.43
2022-11-21T23:21:23.778Z,3.20
2022-11-21T23:23:27.198Z,3.07
2022-11-21T23:25:31.820Z,4.40
2022-11-21T23:27:35.192Z,5.23
2022-11-21T23:29:38.554Z,5.13
2022-11-21T23:31:41.835Z,4.23
2022-11-21T23:33:45.375Z,4.10
2022-11-21T23:35:49.086Z,4.00
2022-11-21T23:37:52.438Z,4.90
2022-11-21T23:39:55.717Z,3.30
2022-11-21T23:42:00.560Z,5.73
2022-11-21T23:44:03.934Z,5.83
2022-11-21T23:46:07.271Z,3.63
2022-11-21T23:48:10.971Z,1.77
2022-11-21T23:50:14.498Z,3.80
2022-11-21T23:52:17.800Z,3.80
2022-11-21T23:54:21.045Z,4.10
2022-11-21T23:56:24.320Z,7.37
2022-11-21T23:58:29.046Z,8.50
